sensor_id;sensor_type;location;lat;lon;timestamp;P1;durP1;ratioP1;P2;durP2;ratioP2
66933;SDS011;53846;51.984;5.890;2022-09-01T00:00:23;33.10;;;31.60;;
66933;SDS011;53846;51.984;5.890;2022-09-01T00:02:57;34.75;;;33.15;;
66933;SDS011;53846;51.984;5.890;2022-09-01T00:05:26;34.63;;;33.03;;
66933;SDS011;53846;51.984;5.890;2022-09-01T00:07:57;32.05;;;30.55;;
66933;SDS011;53846;51.984;5.890;2022-09-01T00:10:26;34.53;;;32.92;;
66933;SDS011;53846;51.984;5.890;2022-09-01T00:12:56;38.13;;;36.33;;
66933;SDS011;53846;51.984;5.890;2022-09-01T00:15:27;32.83;;;31.33;;
66933;SDS011;53846;51.984;5.890;2022-09-01T00:17:58;32.65;;;31.15;;
66933;SDS011;53846;51.984;5.890;2022-09-01T00:20:28;33.10;;;31.55;;
66933;SDS011;53846;51.984;5.890;2022-09-01T00:22:57;36.25;;;34.50;;
66933;SDS011;53846;51.984;5.890;2022-09-01T00:25:27;34.35;;;32.75;;
66933;SDS011;53846;51.984;5.890;2022-09-01T00:27:57;34.08;;;32.40;;
66933;SDS011;53846;51.984;5.890;2022-09-01T00:30:29;35.05;;;33.28;;
66933;SDS011;53846;51.984;5.890;2022-09-01T00:33:01;36.65;;;34.92;;
66933;SDS011;53846;51.984;5.890;2022-09-01T00:35:30;34.65;;;33.05;;
66933;SDS011;53846;51.984;5.890;2022-09-01T00:37:59;30.63;;;29.23;;
66933;SDS011;53846;51.984;5.890;2022-09-01T00:40:28;32.65;;;31.15;;
66933;SDS011;53846;51.984;5.890;2022-09-01T00:42:57;35.35;;;33.67;;
66933;SDS011;53846;51.984;5.890;2022-09-01T00:45:27;35.55;;;33.85;;
66933;SDS011;53846;51.984;5.890;2022-09-01T00:47:57;34.58;;;32.97;;
66933;SDS011;53846;51.984;5.890;2022-09-01T00:50:28;31.48;;;29.98;;
66933;SDS011;53846;51.984;5.890;2022-09-01T00:52:57;33.90;;;32.30;;
66933;SDS011;53846;51.984;5.890;2022-09-01T00:55:27;30.13;;;28.73;;
66933;SDS011;53846;51.984;5.890;2022-09-01T00:57:58;31.75;;;30.25;;
66933;SDS011;53846;51.984;5.890;2022-09-01T01:00:30;32.25;;;30.75;;
66933;SDS011;53846;51.984;5.890;2022-09-01T01:03:06;29.05;;;27.70;;
66933;SDS011;53846;51.984;5.890;2022-09-01T01:05:39;32.13;;;30.63;;
66933;SDS011;53846;51.984;5.890;2022-09-01T01:08:19;30.05;;;28.65;;
66933;SDS011;53846;51.984;5.890;2022-09-01T01:10:53;35.42;;;33.72;;
66933;SDS011;53846;51.984;5.890;2022-09-01T01:13:22;31.75;;;30.25;;
66933;SDS011;53846;51.984;5.890;2022-09-01T01:16:00;33.63;;;32.03;;
66933;SDS011;53846;51.984;5.890;2022-09-01T01:18:36;33.08;;;31.50;;
66933;SDS011;53846;51.984;5.890;2022-09-01T01:21:09;31.90;;;30.38;;
66933;SDS011;53846;51.984;5.890;2022-09-01T01:23:59;28.05;;;26.67;;
66933;SDS011;53846;51.984;5.890;2022-09-01T01:26:36;30.95;;;29.55;;
66933;SDS011;53846;51.984;5.890;2022-09-01T01:29:05;218.25;;;207.60;;
66933;SDS011;53846;51.984;5.890;2022-09-01T01:31:35;57.83;;;55.00;;
66933;SDS011;53846;51.984;5.890;2022-09-01T01:34:04;42.55;;;40.55;;
66933;SDS011;53846;51.984;5.890;2022-09-01T01:36:36;37.63;;;35.83;;
66933;SDS011;53846;51.984;5.890;2022-09-01T01:39:12;37.50;;;35.72;;
66933;SDS011;53846;51.984;5.890;2022-09-01T01:41:46;37.28;;;35.47;;
66933;SDS011;53846;51.984;5.890;2022-09-01T01:44:18;36.95;;;35.20;;
66933;SDS011;53846;51.984;5.890;2022-09-01T01:46:55;63.27;;;60.20;;
66933;SDS011;53846;51.984;5.890;2022-09-01T01:49:25;50.05;;;47.65;;
66933;SDS011;53846;51.984;5.890;2022-09-01T01:51:56;41.13;;;39.15;;
66933;SDS011;53846;51.984;5.890;2022-09-01T01:54:29;48.60;;;46.30;;
66933;SDS011;53846;51.984;5.890;2022-09-01T01:57:01;47.05;;;43.92;;
66933;SDS011;53846;51.984;5.890;2022-09-01T01:59:32;44.83;;;42.70;;
66933;SDS011;53846;51.984;5.890;2022-09-01T02:02:03;45.45;;;43.28;;
66933;SDS011;53846;51.984;5.890;2022-09-01T02:04:37;48.75;;;46.45;;
66933;SDS011;53846;51.984;5.890;2022-09-01T02:07:10;50.20;;;47.78;;
66933;SDS011;53846;51.984;5.890;2022-09-01T02:09:41;53.33;;;50.72;;
66933;SDS011;53846;51.984;5.890;2022-09-01T02:12:17;59.28;;;56.38;;
66933;SDS011;53846;51.984;5.890;2022-09-01T02:14:49;57.05;;;54.33;;
66933;SDS011;53846;51.984;5.890;2022-09-01T02:17:20;56.70;;;53.97;;
66933;SDS011;53846;51.984;5.890;2022-09-01T02:19:51;57.15;;;54.42;;
66933;SDS011;53846;51.984;5.890;2022-09-01T02:22:22;61.63;;;58.67;;
66933;SDS011;53846;51.984;5.890;2022-09-01T02:24:51;60.97;;;58.08;;
66933;SDS011;53846;51.984;5.890;2022-09-01T02:27:23;55.10;;;52.47;;
66933;SDS011;53846;51.984;5.890;2022-09-01T02:29:54;56.10;;;53.40;;
66933;SDS011;53846;51.984;5.890;2022-09-01T02:32:24;57.53;;;54.78;;
66933;SDS011;53846;51.984;5.890;2022-09-01T02:34:53;57.10;;;54.35;;
66933;SDS011;53846;51.984;5.890;2022-09-01T02:37:26;58.65;;;55.85;;
66933;SDS011;53846;51.984;5.890;2022-09-01T02:39:55;57.00;;;54.28;;
66933;SDS011;53846;51.984;5.890;2022-09-01T02:42:27;52.22;;;49.72;;
66933;SDS011;53846;51.984;5.890;2022-09-01T02:44:56;52.25;;;49.75;;
66933;SDS011;53846;51.984;5.890;2022-09-01T02:47:26;51.22;;;48.80;;
66933;SDS011;53846;51.984;5.890;2022-09-01T02:49:56;53.42;;;50.88;;
66933;SDS011;53846;51.984;5.890;2022-09-01T02:52:28;49.40;;;47.00;;
66933;SDS011;53846;51.984;5.890;2022-09-01T02:55:00;50.78;;;48.38;;
66933;SDS011;53846;51.984;5.890;2022-09-01T02:57:32;52.00;;;49.53;;
66933;SDS011;53846;51.984;5.890;2022-09-01T03:00:02;53.13;;;50.60;;
66933;SDS011;53846;51.984;5.890;2022-09-01T03:02:47;52.08;;;49.60;;
66933;SDS011;53846;51.984;5.890;2022-09-01T03:05:18;48.40;;;46.10;;
66933;SDS011;53846;51.984;5.890;2022-09-01T03:07:52;49.75;;;47.38;;
66933;SDS011;53846;51.984;5.890;2022-09-01T03:10:26;50.78;;;48.38;;
66933;SDS011;53846;51.984;5.890;2022-09-01T03:13:01;50.60;;;48.22;;
66933;SDS011;53846;51.984;5.890;2022-09-01T03:15:33;51.67;;;49.22;;
66933;SDS011;53846;51.984;5.890;2022-09-01T03:18:04;52.58;;;50.08;;
66933;SDS011;53846;51.984;5.890;2022-09-01T03:20:36;51.92;;;49.45;;
66933;SDS011;53846;51.984;5.890;2022-09-01T03:23:09;50.00;;;47.63;;
66933;SDS011;53846;51.984;5.890;2022-09-01T03:25:41;53.13;;;50.58;;
66933;SDS011;53846;51.984;5.890;2022-09-01T03:28:14;52.35;;;49.85;;
66933;SDS011;53846;51.984;5.890;2022-09-01T03:30:44;51.58;;;49.13;;
66933;SDS011;53846;51.984;5.890;2022-09-01T03:33:16;49.95;;;47.58;;
66933;SDS011;53846;51.984;5.890;2022-09-01T03:35:47;48.60;;;46.28;;
66933;SDS011;53846;51.984;5.890;2022-09-01T03:38:18;53.90;;;51.35;;
66933;SDS011;53846;51.984;5.890;2022-09-01T03:40:50;51.15;;;48.70;;
66933;SDS011;53846;51.984;5.890;2022-09-01T03:43:27;53.38;;;50.83;;
66933;SDS011;53846;51.984;5.890;2022-09-01T03:45:56;56.35;;;52.97;;
66933;SDS011;53846;51.984;5.890;2022-09-01T03:48:27;51.07;;;48.63;;
66933;SDS011;53846;51.984;5.890;2022-09-01T03:50:58;52.55;;;50.03;;
66933;SDS011;53846;51.984;5.890;2022-09-01T03:53:30;49.97;;;47.60;;
66933;SDS011;53846;51.984;5.890;2022-09-01T03:56:03;49.90;;;47.53;;
66933;SDS011;53846;51.984;5.890;2022-09-01T03:58:36;54.13;;;51.53;;
66933;SDS011;53846;51.984;5.890;2022-09-01T04:01:09;53.63;;;51.07;;
66933;SDS011;53846;51.984;5.890;2022-09-01T04:03:38;56.28;;;53.58;;
66933;SDS011;53846;51.984;5.890;2022-09-01T04:06:15;56.33;;;53.63;;
66933;SDS011;53846;51.984;5.890;2022-09-01T04:08:48;54.88;;;52.22;;
66933;SDS011;53846;51.984;5.890;2022-09-01T04:11:20;49.33;;;46.97;;
66933;SDS011;53846;51.984;5.890;2022-09-01T04:13:53;49.50;;;47.15;;
66933;SDS011;53846;51.984;5.890;2022-09-01T04:16:23;51.70;;;49.20;;
66933;SDS011;53846;51.984;5.890;2022-09-01T04:19:06;51.63;;;49.17;;
66933;SDS011;53846;51.984;5.890;2022-09-01T04:21:44;51.17;;;48.73;;
66933;SDS011;53846;51.984;5.890;2022-09-01T04:24:15;55.43;;;52.77;;
66933;SDS011;53846;51.984;5.890;2022-09-01T04:26:45;50.33;;;47.92;;
66933;SDS011;53846;51.984;5.890;2022-09-01T04:29:19;49.83;;;47.47;;
66933;SDS011;53846;51.984;5.890;2022-09-01T04:31:52;54.73;;;52.03;;
66933;SDS011;53846;51.984;5.890;2022-09-01T04:34:22;52.77;;;50.27;;
66933;SDS011;53846;51.984;5.890;2022-09-01T04:36:52;51.78;;;49.33;;
66933;SDS011;53846;51.984;5.890;2022-09-01T04:39:22;112.65;;;107.20;;
66933;SDS011;53846;51.984;5.890;2022-09-01T04:41:53;54.70;;;52.07;;
66933;SDS011;53846;51.984;5.890;2022-09-01T04:44:24;54.22;;;51.65;;
66933;SDS011;53846;51.984;5.890;2022-09-01T04:46:53;54.63;;;52.03;;
66933;SDS011;53846;51.984;5.890;2022-09-01T04:49:23;51.60;;;49.13;;
66933;SDS011;53846;51.984;5.890;2022-09-01T04:51:54;52.47;;;49.97;;
66933;SDS011;53846;51.984;5.890;2022-09-01T04:54:23;50.57;;;48.17;;
66933;SDS011;53846;51.984;5.890;2022-09-01T04:56:52;52.93;;;50.40;;
66933;SDS011;53846;51.984;5.890;2022-09-01T04:59:25;51.65;;;49.00;;
66933;SDS011;53846;51.984;5.890;2022-09-01T05:01:58;48.83;;;46.50;;
66933;SDS011;53846;51.984;5.890;2022-09-01T05:04:28;52.10;;;49.60;;
66933;SDS011;53846;51.984;5.890;2022-09-01T05:07:00;51.72;;;49.28;;
66933;SDS011;53846;51.984;5.890;2022-09-01T05:09:35;52.57;;;50.07;;
66933;SDS011;53846;51.984;5.890;2022-09-01T05:12:21;51.35;;;48.90;;
66933;SDS011;53846;51.984;5.890;2022-09-01T05:14:55;53.28;;;50.72;;
66933;SDS011;53846;51.984;5.890;2022-09-01T05:17:26;52.10;;;49.60;;
66933;SDS011;53846;51.984;5.890;2022-09-01T05:19:56;52.63;;;50.13;;
66933;SDS011;53846;51.984;5.890;2022-09-01T05:22:25;51.37;;;48.90;;
66933;SDS011;53846;51.984;5.890;2022-09-01T05:25:01;55.67;;;53.00;;
66933;SDS011;53846;51.984;5.890;2022-09-01T05:27:39;49.50;;;47.10;;
66933;SDS011;53846;51.984;5.890;2022-09-01T05:30:17;55.80;;;53.10;;
66933;SDS011;53846;51.984;5.890;2022-09-01T05:32:47;53.30;;;50.73;;
66933;SDS011;53846;51.984;5.890;2022-09-01T05:35:18;49.73;;;47.33;;
66933;SDS011;53846;51.984;5.890;2022-09-01T05:37:49;50.70;;;48.30;;
66933;SDS011;53846;51.984;5.890;2022-09-01T05:40:19;48.93;;;46.60;;
66933;SDS011;53846;51.984;5.890;2022-09-01T05:42:49;53.53;;;50.93;;
66933;SDS011;53846;51.984;5.890;2022-09-01T05:45:23;49.73;;;47.33;;
66933;SDS011;53846;51.984;5.890;2022-09-01T05:47:52;54.40;;;51.80;;
66933;SDS011;53846;51.984;5.890;2022-09-01T05:50:22;51.37;;;48.93;;
66933;SDS011;53846;51.984;5.890;2022-09-01T05:52:52;49.57;;;47.20;;
66933;SDS011;53846;51.984;5.890;2022-09-01T05:55:22;50.33;;;47.97;;
66933;SDS011;53846;51.984;5.890;2022-09-01T05:57:52;49.40;;;47.00;;
66933;SDS011;53846;51.984;5.890;2022-09-01T06:00:24;50.97;;;48.57;;
66933;SDS011;53846;51.984;5.890;2022-09-01T06:02:59;54.77;;;51.63;;
66933;SDS011;53846;51.984;5.890;2022-09-01T06:05:32;47.83;;;45.53;;
66933;SDS011;53846;51.984;5.890;2022-09-01T06:08:07;50.03;;;47.67;;
66933;SDS011;53846;51.984;5.890;2022-09-01T06:10:39;50.83;;;48.37;;
66933;SDS011;53846;51.984;5.890;2022-09-01T06:13:10;48.23;;;45.93;;
66933;SDS011;53846;51.984;5.890;2022-09-01T06:15:44;53.10;;;50.57;;
66933;SDS011;53846;51.984;5.890;2022-09-01T06:18:14;55.23;;;52.57;;
66933;SDS011;53846;51.984;5.890;2022-09-01T06:20:52;50.22;;;47.83;;
66933;SDS011;53846;51.984;5.890;2022-09-01T06:23:22;48.30;;;46.00;;
66933;SDS011;53846;51.984;5.890;2022-09-01T06:25:51;50.97;;;48.50;;
66933;SDS011;53846;51.984;5.890;2022-09-01T06:28:21;52.90;;;50.33;;
66933;SDS011;53846;51.984;5.890;2022-09-01T06:30:52;54.42;;;51.75;;
66933;SDS011;53846;51.984;5.890;2022-09-01T06:33:23;48.30;;;45.97;;
66933;SDS011;53846;51.984;5.890;2022-09-01T06:35:52;53.83;;;51.23;;
66933;SDS011;53846;51.984;5.890;2022-09-01T06:38:22;54.03;;;51.43;;
66933;SDS011;53846;51.984;5.890;2022-09-01T06:40:58;53.70;;;51.13;;
66933;SDS011;53846;51.984;5.890;2022-09-01T06:43:29;54.23;;;51.60;;
66933;SDS011;53846;51.984;5.890;2022-09-01T06:46:02;56.47;;;53.78;;
66933;SDS011;53846;51.984;5.890;2022-09-01T06:48:33;57.13;;;54.37;;
66933;SDS011;53846;51.984;5.890;2022-09-01T06:51:07;56.50;;;53.77;;
66933;SDS011;53846;51.984;5.890;2022-09-01T06:53:37;56.83;;;54.10;;
66933;SDS011;53846;51.984;5.890;2022-09-01T06:56:09;56.65;;;53.95;;
66933;SDS011;53846;51.984;5.890;2022-09-01T06:58:41;54.65;;;52.05;;
66933;SDS011;53846;51.984;5.890;2022-09-01T07:01:14;55.60;;;52.95;;
66933;SDS011;53846;51.984;5.890;2022-09-01T07:03:47;52.72;;;50.22;;
66933;SDS011;53846;51.984;5.890;2022-09-01T07:06:24;51.97;;;49.47;;
66933;SDS011;53846;51.984;5.890;2022-09-01T07:09:13;51.35;;;48.90;;
66933;SDS011;53846;51.984;5.890;2022-09-01T07:11:46;48.30;;;46.00;;
66933;SDS011;53846;51.984;5.890;2022-09-01T07:14:15;52.72;;;50.20;;
66933;SDS011;53846;51.984;5.890;2022-09-01T07:16:49;52.53;;;50.03;;
66933;SDS011;53846;51.984;5.890;2022-09-01T07:19:19;49.33;;;46.97;;
66933;SDS011;53846;51.984;5.890;2022-09-01T07:21:54;43.65;;;41.47;;
66933;SDS011;53846;51.984;5.890;2022-09-01T07:24:25;44.75;;;42.63;;
66933;SDS011;53846;51.984;5.890;2022-09-01T07:27:14;47.35;;;45.08;;
66933;SDS011;53846;51.984;5.890;2022-09-01T07:29:44;40.08;;;38.20;;
66933;SDS011;53846;51.984;5.890;2022-09-01T07:32:21;36.60;;;34.90;;
66933;SDS011;53846;51.984;5.890;2022-09-01T07:34:51;38.50;;;35.63;;
66933;SDS011;53846;51.984;5.890;2022-09-01T07:37:20;28.27;;;26.88;;
66933;SDS011;53846;51.984;5.890;2022-09-01T07:39:51;32.33;;;30.80;;
66933;SDS011;53846;51.984;5.890;2022-09-01T07:42:32;27.60;;;26.35;;
66933;SDS011;53846;51.984;5.890;2022-09-01T07:45:05;27.65;;;26.38;;
66933;SDS011;53846;51.984;5.890;2022-09-01T07:47:46;26.48;;;25.25;;
66933;SDS011;53846;51.984;5.890;2022-09-01T07:50:15;23.25;;;22.20;;
66933;SDS011;53846;51.984;5.890;2022-09-01T07:52:44;22.42;;;21.40;;
66933;SDS011;53846;51.984;5.890;2022-09-01T07:55:15;18.48;;;17.67;;
66933;SDS011;53846;51.984;5.890;2022-09-01T07:57:44;17.23;;;16.02;;
66933;SDS011;53846;51.984;5.890;2022-09-01T08:00:15;15.95;;;15.23;;
66933;SDS011;53846;51.984;5.890;2022-09-01T08:02:52;13.75;;;13.15;;
66933;SDS011;53846;51.984;5.890;2022-09-01T08:05:21;12.90;;;12.32;;
66933;SDS011;53846;51.984;5.890;2022-09-01T08:07:51;11.30;;;10.80;;
66933;SDS011;53846;51.984;5.890;2022-09-01T08:10:27;13.20;;;12.60;;
66933;SDS011;53846;51.984;5.890;2022-09-01T08:12:56;11.50;;;11.00;;
66933;SDS011;53846;51.984;5.890;2022-09-01T08:15:26;11.77;;;11.27;;
66933;SDS011;53846;51.984;5.890;2022-09-01T08:17:57;9.70;;;9.27;;
66933;SDS011;53846;51.984;5.890;2022-09-01T08:20:29;10.18;;;9.75;;
66933;SDS011;53846;51.984;5.890;2022-09-01T08:23:08;9.30;;;8.90;;
66933;SDS011;53846;51.984;5.890;2022-09-01T08:25:38;8.68;;;8.27;;
66933;SDS011;53846;51.984;5.890;2022-09-01T08:28:10;7.78;;;7.43;;
66933;SDS011;53846;51.984;5.890;2022-09-01T08:30:43;7.95;;;7.60;;
66933;SDS011;53846;51.984;5.890;2022-09-01T08:33:16;7.25;;;6.95;;
66933;SDS011;53846;51.984;5.890;2022-09-01T08:35:47;6.38;;;6.13;;
66933;SDS011;53846;51.984;5.890;2022-09-01T08:38:17;7.70;;;7.40;;
66933;SDS011;53846;51.984;5.890;2022-09-01T08:40:49;8.77;;;8.40;;
66933;SDS011;53846;51.984;5.890;2022-09-01T08:43:23;9.45;;;9.00;;
66933;SDS011;53846;51.984;5.890;2022-09-01T08:46:01;9.80;;;9.15;;
66933;SDS011;53846;51.984;5.890;2022-09-01T08:48:42;7.50;;;7.20;;
66933;SDS011;53846;51.984;5.890;2022-09-01T08:51:17;6.43;;;6.13;;
66933;SDS011;53846;51.984;5.890;2022-09-01T08:53:58;7.03;;;6.72;;
66933;SDS011;53846;51.984;5.890;2022-09-01T08:56:33;4.10;;;4.00;;
66933;SDS011;53846;51.984;5.890;2022-09-01T08:59:05;7.43;;;7.13;;
66933;SDS011;53846;51.984;5.890;2022-09-01T09:02:05;7.65;;;7.35;;
66933;SDS011;53846;51.984;5.890;2022-09-01T09:04:57;6.97;;;6.68;;
66933;SDS011;53846;51.984;5.890;2022-09-01T09:07:35;6.32;;;6.10;;
66933;SDS011;53846;51.984;5.890;2022-09-01T09:10:16;6.10;;;5.90;;
66933;SDS011;53846;51.984;5.890;2022-09-01T09:12:50;5.63;;;5.43;;
66933;SDS011;53846;51.984;5.890;2022-09-01T09:15:32;5.47;;;5.28;;
66933;SDS011;53846;51.984;5.890;2022-09-01T09:18:10;5.97;;;5.78;;
66933;SDS011;53846;51.984;5.890;2022-09-01T09:20:46;5.78;;;5.57;;
66933;SDS011;53846;51.984;5.890;2022-09-01T09:23:19;6.28;;;5.97;;
66933;SDS011;53846;51.984;5.890;2022-09-01T09:25:53;9.95;;;9.50;;
66933;SDS011;53846;51.984;5.890;2022-09-01T09:28:22;18.48;;;17.65;;
66933;SDS011;53846;51.984;5.890;2022-09-01T09:30:51;23.10;;;22.02;;
66933;SDS011;53846;51.984;5.890;2022-09-01T09:33:53;24.17;;;23.08;;
66933;SDS011;53846;51.984;5.890;2022-09-01T09:36:28;23.30;;;22.23;;
66933;SDS011;53846;51.984;5.890;2022-09-01T09:39:08;29.98;;;28.58;;
66933;SDS011;53846;51.984;5.890;2022-09-01T09:41:39;45.15;;;43.00;;
66933;SDS011;53846;51.984;5.890;2022-09-01T09:44:16;57.35;;;54.65;;
66933;SDS011;53846;51.984;5.890;2022-09-01T09:46:51;64.53;;;61.47;;
66933;SDS011;53846;51.984;5.890;2022-09-01T09:49:22;76.15;;;72.57;;
66933;SDS011;53846;51.984;5.890;2022-09-01T09:51:56;83.55;;;79.60;;
66933;SDS011;53846;51.984;5.890;2022-09-01T09:54:56;89.28;;;85.07;;
66933;SDS011;53846;51.984;5.890;2022-09-01T09:57:28;88.53;;;84.32;;
66933;SDS011;53846;51.984;5.890;2022-09-01T10:00:01;96.05;;;91.50;;
66933;SDS011;53846;51.984;5.890;2022-09-01T10:02:40;102.00;;;97.15;;
66933;SDS011;53846;51.984;5.890;2022-09-01T10:05:25;102.75;;;97.88;;
66933;SDS011;53846;51.984;5.890;2022-09-01T10:08:02;104.93;;;99.93;;
66933;SDS011;53846;51.984;5.890;2022-09-01T10:10:36;99.78;;;95.03;;
66933;SDS011;53846;51.984;5.890;2022-09-01T10:13:10;104.18;;;99.18;;
66933;SDS011;53846;51.984;5.890;2022-09-01T10:15:40;105.82;;;100.82;;
66933;SDS011;53846;51.984;5.890;2022-09-01T10:18:16;99.22;;;94.53;;
66933;SDS011;53846;51.984;5.890;2022-09-01T10:20:50;98.07;;;93.40;;
66933;SDS011;53846;51.984;5.890;2022-09-01T10:23:26;93.38;;;88.97;;
66933;SDS011;53846;51.984;5.890;2022-09-01T10:25:59;90.53;;;86.22;;
66933;SDS011;53846;51.984;5.890;2022-09-01T10:28:30;88.05;;;83.85;;
66933;SDS011;53846;51.984;5.890;2022-09-01T10:31:01;87.88;;;83.68;;
66933;SDS011;53846;51.984;5.890;2022-09-01T10:33:30;83.55;;;79.57;;
66933;SDS011;53846;51.984;5.890;2022-09-01T10:35:59;74.05;;;70.53;;
66933;SDS011;53846;51.984;5.890;2022-09-01T10:38:31;71.50;;;68.10;;
66933;SDS011;53846;51.984;5.890;2022-09-01T10:41:00;64.75;;;61.67;;
66933;SDS011;53846;51.984;5.890;2022-09-01T10:43:38;61.88;;;58.95;;
66933;SDS011;53846;51.984;5.890;2022-09-01T10:46:09;63.05;;;60.05;;
66933;SDS011;53846;51.984;5.890;2022-09-01T10:49:00;62.30;;;59.33;;
66933;SDS011;53846;51.984;5.890;2022-09-01T10:51:42;60.25;;;57.35;;
66933;SDS011;53846;51.984;5.890;2022-09-01T10:57:23;60.30;;;57.42;;
66933;SDS011;53846;51.984;5.890;2022-09-01T11:06:04;49.83;;;47.45;;
66933;SDS011;53846;51.984;5.890;2022-09-01T11:08:41;49.33;;;47.03;;
66933;SDS011;53846;51.984;5.890;2022-09-01T11:11:19;51.45;;;49.05;;
66933;SDS011;53846;51.984;5.890;2022-09-01T11:14:00;45.30;;;43.17;;
66933;SDS011;53846;51.984;5.890;2022-09-01T11:16:36;46.80;;;44.60;;
66933;SDS011;53846;51.984;5.890;2022-09-01T11:19:23;44.22;;;42.13;;
66933;SDS011;53846;51.984;5.890;2022-09-01T11:22:19;46.50;;;44.30;;
66933;SDS011;53846;51.984;5.890;2022-09-01T11:28:02;37.15;;;35.35;;
66933;SDS011;53846;51.984;5.890;2022-09-01T11:30:42;40.20;;;38.30;;
66933;SDS011;53846;51.984;5.890;2022-09-01T11:33:31;40.92;;;39.03;;
66933;SDS011;53846;51.984;5.890;2022-09-01T11:36:13;38.00;;;36.20;;
66933;SDS011;53846;51.984;5.890;2022-09-01T11:38:49;30.13;;;28.73;;
66933;SDS011;53846;51.984;5.890;2022-09-01T11:41:21;28.52;;;27.23;;
66933;SDS011;53846;51.984;5.890;2022-09-01T11:43:53;31.27;;;29.83;;
66933;SDS011;53846;51.984;5.890;2022-09-01T11:46:29;29.55;;;28.15;;
66933;SDS011;53846;51.984;5.890;2022-09-01T11:49:02;26.15;;;24.95;;
66933;SDS011;53846;51.984;5.890;2022-09-01T11:51:37;26.65;;;25.45;;
66933;SDS011;53846;51.984;5.890;2022-09-01T11:54:11;25.13;;;23.95;;
66933;SDS011;53846;51.984;5.890;2022-09-01T11:56:41;21.17;;;20.17;;
66933;SDS011;53846;51.984;5.890;2022-09-01T11:59:10;22.83;;;21.80;;
66933;SDS011;53846;51.984;5.890;2022-09-01T12:01:42;21.35;;;20.35;;
66933;SDS011;53846;51.984;5.890;2022-09-01T12:04:18;17.42;;;16.63;;
66933;SDS011;53846;51.984;5.890;2022-09-01T12:06:52;17.92;;;17.13;;
66933;SDS011;53846;51.984;5.890;2022-09-01T12:09:30;17.10;;;16.30;;
66933;SDS011;53846;51.984;5.890;2022-09-01T12:12:01;16.73;;;16.00;;
66933;SDS011;53846;51.984;5.890;2022-09-01T12:14:31;16.30;;;15.60;;
66933;SDS011;53846;51.984;5.890;2022-09-01T12:17:03;16.98;;;16.20;;
66933;SDS011;53846;51.984;5.890;2022-09-01T12:19:34;17.33;;;16.55;;
66933;SDS011;53846;51.984;5.890;2022-09-01T12:22:05;17.25;;;16.45;;
66933;SDS011;53846;51.984;5.890;2022-09-01T12:24:43;16.65;;;15.88;;
66933;SDS011;53846;51.984;5.890;2022-09-01T12:27:14;16.15;;;15.45;;
66933;SDS011;53846;51.984;5.890;2022-09-01T12:29:43;16.33;;;15.63;;
66933;SDS011;53846;51.984;5.890;2022-09-01T12:32:15;15.10;;;14.40;;
66933;SDS011;53846;51.984;5.890;2022-09-01T12:34:46;16.73;;;15.98;;
66933;SDS011;53846;51.984;5.890;2022-09-01T12:37:26;16.08;;;15.38;;
66933;SDS011;53846;51.984;5.890;2022-09-01T12:39:56;16.27;;;15.57;;
66933;SDS011;53846;51.984;5.890;2022-09-01T12:42:27;16.95;;;16.17;;
66933;SDS011;53846;51.984;5.890;2022-09-01T12:44:58;15.82;;;15.13;;
66933;SDS011;53846;51.984;5.890;2022-09-01T12:50:33;16.27;;;15.52;;
66933;SDS011;53846;51.984;5.890;2022-09-01T12:53:14;19.30;;;18.42;;
66933;SDS011;53846;51.984;5.890;2022-09-01T12:56:01;23.65;;;22.55;;
66933;SDS011;53846;51.984;5.890;2022-09-01T12:58:46;30.13;;;28.65;;
66933;SDS011;53846;51.984;5.890;2022-09-01T13:01:26;40.10;;;38.20;;
66933;SDS011;53846;51.984;5.890;2022-09-01T13:04:13;42.20;;;40.17;;
66933;SDS011;53846;51.984;5.890;2022-09-01T13:06:50;128.90;;;122.45;;
66933;SDS011;53846;51.984;5.890;2022-09-01T13:09:20;69.05;;;65.70;;
66933;SDS011;53846;51.984;5.890;2022-09-01T13:11:50;35.42;;;33.72;;
66933;SDS011;53846;51.984;5.890;2022-09-01T13:14:19;25.05;;;23.90;;
66933;SDS011;53846;51.984;5.890;2022-09-01T13:16:50;28.10;;;26.80;;
66933;SDS011;53846;51.984;5.890;2022-09-01T13:19:21;23.70;;;22.63;;
66933;SDS011;53846;51.984;5.890;2022-09-01T13:21:50;28.40;;;27.05;;
66933;SDS011;53846;51.984;5.890;2022-09-01T13:24:19;25.15;;;23.98;;
66933;SDS011;53846;51.984;5.890;2022-09-01T13:26:48;26.83;;;25.58;;
66933;SDS011;53846;51.984;5.890;2022-09-01T13:29:20;27.02;;;25.73;;
66933;SDS011;53846;51.984;5.890;2022-09-01T13:31:49;27.80;;;26.50;;
66933;SDS011;53846;51.984;5.890;2022-09-01T13:34:18;25.15;;;23.98;;
66933;SDS011;53846;51.984;5.890;2022-09-01T13:36:50;22.60;;;21.55;;
66933;SDS011;53846;51.984;5.890;2022-09-01T13:39:19;25.48;;;24.27;;
66933;SDS011;53846;51.984;5.890;2022-09-01T13:41:48;30.75;;;29.25;;
66933;SDS011;53846;51.984;5.890;2022-09-01T13:44:17;29.35;;;27.98;;
66933;SDS011;53846;51.984;5.890;2022-09-01T13:46:46;40.20;;;38.25;;
66933;SDS011;53846;51.984;5.890;2022-09-01T13:49:15;41.58;;;39.60;;
66933;SDS011;53846;51.984;5.890;2022-09-01T13:51:51;40.50;;;38.55;;
66933;SDS011;53846;51.984;5.890;2022-09-01T13:54:21;50.58;;;48.13;;
66933;SDS011;53846;51.984;5.890;2022-09-01T13:56:50;53.80;;;51.17;;
66933;SDS011;53846;51.984;5.890;2022-09-01T13:59:19;54.63;;;51.97;;
66933;SDS011;53846;51.984;5.890;2022-09-01T14:01:48;68.03;;;64.70;;
66933;SDS011;53846;51.984;5.890;2022-09-01T14:04:17;43.58;;;41.47;;
66933;SDS011;53846;51.984;5.890;2022-09-01T14:06:47;50.75;;;48.30;;
66933;SDS011;53846;51.984;5.890;2022-09-01T14:09:19;61.40;;;58.38;;
66933;SDS011;53846;51.984;5.890;2022-09-01T14:11:51;84.32;;;80.22;;
66933;SDS011;53846;51.984;5.890;2022-09-01T14:14:20;64.05;;;60.90;;
66933;SDS011;53846;51.984;5.890;2022-09-01T14:16:49;59.08;;;56.20;;
66933;SDS011;53846;51.984;5.890;2022-09-01T14:19:19;62.60;;;59.53;;
66933;SDS011;53846;51.984;5.890;2022-09-01T14:21:51;56.80;;;54.05;;
66933;SDS011;53846;51.984;5.890;2022-09-01T14:24:21;53.65;;;51.00;;
66933;SDS011;53846;51.984;5.890;2022-09-01T14:26:51;67.25;;;63.92;;
66933;SDS011;53846;51.984;5.890;2022-09-01T14:29:20;60.92;;;57.97;;
66933;SDS011;53846;51.984;5.890;2022-09-01T14:31:49;64.03;;;60.90;;
66933;SDS011;53846;51.984;5.890;2022-09-01T14:34:21;89.45;;;85.05;;
66933;SDS011;53846;51.984;5.890;2022-09-01T14:36:53;62.63;;;59.53;;
66933;SDS011;53846;51.984;5.890;2022-09-01T14:39:22;71.38;;;67.93;;
66933;SDS011;53846;51.984;5.890;2022-09-01T14:41:53;62.60;;;59.55;;
66933;SDS011;53846;51.984;5.890;2022-09-01T14:44:22;69.55;;;66.13;;
66933;SDS011;53846;51.984;5.890;2022-09-01T14:46:51;56.50;;;53.72;;
66933;SDS011;53846;51.984;5.890;2022-09-01T14:49:20;47.30;;;45.00;;
66933;SDS011;53846;51.984;5.890;2022-09-01T14:51:49;54.65;;;51.97;;
66933;SDS011;53846;51.984;5.890;2022-09-01T14:54:22;40.30;;;38.35;;
66933;SDS011;53846;51.984;5.890;2022-09-01T14:56:51;34.60;;;32.88;;
66933;SDS011;53846;51.984;5.890;2022-09-01T14:59:20;38.85;;;36.95;;
66933;SDS011;53846;51.984;5.890;2022-09-01T15:01:49;31.02;;;29.58;;
66933;SDS011;53846;51.984;5.890;2022-09-01T15:04:18;40.83;;;38.88;;
66933;SDS011;53846;51.984;5.890;2022-09-01T15:06:47;39.83;;;37.92;;
66933;SDS011;53846;51.984;5.890;2022-09-01T15:09:16;45.28;;;43.08;;
66933;SDS011;53846;51.984;5.890;2022-09-01T15:11:48;49.65;;;47.17;;